Time;durP1;ratioP1;P1;durP2;ratioP2;P2;SDS_P1;SDS_P2;PMS_P1;PMS_P2;Temp;Humidity;BMP_temperature;BMP_pressure;BME280_temperature;BME280_humidity;BME280_pressure;Samples;Min_cycle;Max_cycle;Signal;HPM_P1;HPM_P2
2023/06/22 00:01:55;;;;;;;1.13;0.38;;;17.30;99.90;;;;;;5096381;28;20028;-77
2023/06/22 00:04:21;;;;;;;2.78;0.25;;;17.20;99.90;;;;;;5094151;28;20085;-78
2023/06/22 00:06:46;;;;;;;1.27;0.28;;;17.50;99.90;;;;;;5094327;28;20017;-78
2023/06/22 00:09:12;;;;;;;0.55;0.28;;;17.10;99.90;;;;;;5093879;28;20012;-78
2023/06/22 00:11:38;;;;;;;0.70;0.20;;;17.20;99.90;;;;;;5093953;28;20032;-77
2023/06/22 00:14:04;;;;;;;0.88;0.63;;;17.10;99.90;;;;;;5092840;28;20506;-76
2023/06/22 00:16:31;;;;;;;0.90;0.30;;;17.10;99.90;;;;;;5095425;28;20027;-77
2023/06/22 00:19:00;;;;;;;0.50;0.50;;;17.10;99.90;;;;;;5094191;28;20066;-77
2023/06/22 00:21:26;;;;;;;2.17;0.98;;;17.50;99.90;;;;;;5095342;28;20028;-76
2023/06/22 00:23:52;;;;;;;0.95;0.28;;;17.10;99.90;;;;;;5093912;28;20027;-76
2023/06/22 00:26:17;;;;;;;1.45;0.30;;;17.10;99.90;;;;;;5095275;28;20094;-77
2023/06/22 00:28:43;;;;;;;1.63;0.63;;;17.00;99.90;;;;;;5093957;28;20020;-76
2023/06/22 00:31:09;;;;;;;1.65;0.50;;;17.50;99.90;;;;;;5094961;28;20526;-76
2023/06/22 00:33:34;;;;;;;4.47;0.93;;;17.00;99.90;;;;;;5094877;28;20104;-77
2023/06/22 00:36:00;;;;;;;4.22;1.05;;;16.90;99.90;;;;;;5095175;28;20027;-77
2023/06/22 00:38:25;;;;;;;2.55;0.90;;;16.90;99.90;;;;;;5095119;28;20035;-77
2023/06/22 00:40:54;;;;;;;1.90;1.23;;;16.90;99.90;;;;;;5094911;28;20060;-76
2023/06/22 00:43:20;;;;;;;0.75;0.55;;;16.90;99.90;;;;;;5095560;28;20083;-78
2023/06/22 00:45:45;;;;;;;4.07;1.52;;;16.80;99.90;;;;;;5094752;28;20031;-78
2023/06/22 00:48:13;;;;;;;1.63;0.82;;;16.80;99.90;;;;;;5094598;28;20035;-78
2023/06/22 00:50:39;;;;;;;1.63;0.82;;;16.70;99.90;;;;;;5094449;28;20028;-77
2023/06/22 00:53:08;;;;;;;2.22;1.30;;;16.70;99.90;;;;;;5095289;28;20088;-78
2023/06/22 00:55:43;;;;;;;4.45;1.45;;;16.70;99.90;;;;;;5093309;28;20019;-76
2023/06/22 00:58:10;;;;;;;2.47;0.90;;;16.60;99.90;;;;;;5094838;28;20020;-75
2023/06/22 01:00:36;;;;;;;4.80;1.98;;;16.60;99.90;;;;;;5094035;28;20376;-76
2023/06/22 01:03:03;;;;;;;4.82;1.20;;;16.60;99.90;;;;;;5094371;28;20383;-77
2023/06/22 01:05:31;;;;;;;4.72;1.70;;;16.50;99.90;;;;;;5094814;28;20052;-77
2023/06/22 01:08:15;;;;;;;4.28;1.65;;;16.40;99.90;;;;;;5095620;28;20035;-78
2023/06/22 01:10:47;;;;;;;3.10;1.20;;;16.40;99.90;;;;;;5094577;28;20031;-78
2023/06/22 01:13:36;;;;;;;6.53;2.13;;;16.40;99.90;;;;;;5095054;28;20091;-75
2023/06/22 01:16:15;;;;;;;4.35;1.83;;;16.30;99.90;;;;;;5093152;28;20032;-78
2023/06/22 01:18:43;;;;;;;2.33;1.35;;;16.30;99.90;;;;;;5092892;28;20024;-78
2023/06/22 01:21:15;;;;;;;4.05;2.35;;;16.30;99.90;;;;;;5094797;28;20027;-77
2023/06/22 01:24:10;;;;;;;3.90;1.50;;;16.20;99.90;;;;;;5093287;28;20032;-77
2023/06/22 01:27:16;;;;;;;3.30;1.98;;;16.10;99.90;;;;;;5092740;28;20023;-77
2023/06/22 01:29:43;;;;;;;6.53;1.38;;;16.10;99.90;;;;;;5092326;28;20035;-77
2023/06/22 01:32:11;;;;;;;17.17;2.58;;;16.10;99.90;;;;;;5093253;28;20020;-78
2023/06/22 01:34:40;;;;;;;3.70;1.40;;;16.00;99.90;;;;;;5094269;28;20016;-77
2023/06/22 01:37:06;;;;;;;5.00;1.77;;;16.00;99.90;;;;;;5094427;28;20016;-77
2023/06/22 01:39:32;;;;;;;4.22;1.73;;;16.00;99.90;;;;;;5092807;28;20089;-77
2023/06/22 01:41:59;;;;;;;5.50;1.95;;;16.10;99.90;;;;;;5093942;28;20031;-77
2023/06/22 01:44:26;;;;;;;3.28;1.92;;;16.00;99.90;;;;;;5094120;28;20480;-77
2023/06/22 01:46:52;;;;;;;5.57;2.05;;;16.00;99.90;;;;;;5094183;28;20027;-76
2023/06/22 01:54:46;;;;;;;4.43;2.73;;;15.90;99.90;;;;;;5050493;28;20115;-77
2023/06/22 01:57:11;;;;;;;6.60;2.42;;;16.00;99.90;;;;;;5035298;28;20063;-77
2023/06/22 02:00:04;;;;;;;6.45;2.53;;;16.00;99.90;;;;;;5035273;28;20108;-77
2023/06/22 02:02:38;;;;;;;5.70;2.83;;;15.90;99.90;;;;;;5035276;28;20021;-77
2023/06/22 02:05:10;;;;;;;3.58;2.08;;;15.90;99.90;;;;;;5053145;28;20099;-77
2023/06/22 02:07:44;;;;;;;4.90;3.03;;;15.80;99.90;;;;;;5053104;28;20032;-77
2023/06/22 02:10:12;;;;;;;5.28;2.97;;;15.80;99.90;;;;;;5053075;28;20025;-77
2023/06/22 02:12:39;;;;;;;5.63;2.75;;;15.80;99.90;;;;;;5035044;28;20021;-77
2023/06/22 02:15:05;;;;;;;7.90;3.08;;;15.80;99.90;;;;;;5053161;28;20547;-77
2023/06/22 02:17:33;;;;;;;5.93;3.22;;;15.70;99.90;;;;;;5053087;28;20395;-77
2023/06/22 02:19:58;;;;;;;5.43;2.83;;;16.30;99.90;;;;;;5052867;28;20103;-77
2023/06/22 02:22:24;;;;;;;7.57;3.97;;;15.70;99.90;;;;;;5052878;28;20098;-77
2023/06/22 02:24:50;;;;;;;5.70;2.83;;;15.70;99.90;;;;;;5053577;28;20021;-77
2023/06/22 02:27:15;;;;;;;4.38;2.58;;;15.70;99.90;;;;;;5052917;28;20032;-77
2023/06/22 02:29:41;;;;;;;4.80;2.75;;;15.70;99.90;;;;;;5052815;28;20057;-77
2023/06/22 02:32:07;;;;;;;3.17;1.95;;;15.60;99.90;;;;;;5052811;28;20049;-77
2023/06/22 02:34:33;;;;;;;4.88;1.90;;;15.60;99.90;;;;;;5035051;28;20013;-77
2023/06/22 02:37:00;;;;;;;3.40;1.70;;;15.60;99.90;;;;;;5053935;28;20019;-77
2023/06/22 02:39:26;;;;;;;6.13;2.30;;;15.60;99.90;;;;;;5056597;28;20058;-77
2023/06/22 02:41:53;;;;;;;3.53;2.15;;;15.50;99.90;;;;;;5056590;28;20023;-77
2023/06/22 02:44:19;;;;;;;2.90;2.10;;;15.80;99.90;;;;;;5056625;28;20446;-77
2023/06/22 02:46:45;;;;;;;6.43;2.65;;;15.40;99.90;;;;;;5056677;28;20387;-77
2023/06/22 02:49:11;;;;;;;5.85;2.10;;;15.40;99.90;;;;;;5056388;28;20491;-77
2023/06/22 02:51:41;;;;;;;4.03;2.22;;;15.40;99.90;;;;;;5056370;28;20434;-77
2023/06/22 02:54:07;;;;;;;8.80;2.72;;;15.30;99.90;;;;;;5038024;28;20514;-77
2023/06/22 02:56:32;;;;;;;6.43;1.80;;;15.30;99.90;;;;;;5056322;28;20017;-77
2023/06/22 02:59:01;;;;;;;5.65;1.50;;;15.90;99.90;;;;;;5056079;28;20075;-77
2023/06/22 03:01:39;;;;;;;3.35;2.40;;;15.30;99.90;;;;;;5056435;28;20021;-77
2023/06/22 03:04:05;;;;;;;2.10;1.70;;;15.30;99.90;;;;;;5038454;28;20094;-77
2023/06/22 03:06:31;;;;;;;3.85;2.10;;;15.30;99.90;;;;;;5056609;28;20031;-77
2023/06/22 03:09:01;;;;;;;3.22;1.92;;;15.20;99.90;;;;;;5038336;28;20108;-77
2023/06/22 03:11:26;;;;;;;5.43;2.03;;;15.20;99.90;;;;;;5056004;28;20021;-77
2023/06/22 03:13:52;;;;;;;6.63;2.10;;;15.30;99.90;;;;;;5038295;28;20079;-77
2023/06/22 03:16:19;;;;;;;3.88;2.03;;;15.20;99.90;;;;;;5038120;28;20045;-77
2023/06/22 03:18:44;;;;;;;2.95;1.25;;;15.30;99.90;;;;;;5056045;28;20053;-77
2023/06/22 03:21:10;;;;;;;6.07;2.28;;;15.10;99.90;;;;;;5055754;28;20534;-77
2023/06/22 03:23:36;;;;;;;3.80;2.50;;;15.10;99.90;;;;;;5037910;28;20061;-77
2023/06/22 03:26:02;;;;;;;6.60;1.83;;;15.00;99.90;;;;;;5055719;28;20025;-77
2023/06/22 03:28:27;;;;;;;6.63;2.75;;;14.90;99.90;;;;;;5055558;28;20079;-77
2023/06/22 03:30:53;;;;;;;3.75;2.25;;;14.90;99.90;;;;;;5055551;28;20503;-77
2023/06/22 03:33:19;;;;;;;4.95;2.58;;;14.90;99.90;;;;;;5055494;28;20480;-77
2023/06/22 03:35:44;;;;;;;4.55;2.53;;;14.90;99.90;;;;;;5055642;28;20418;-77
2023/06/22 03:38:10;;;;;;;4.47;2.50;;;14.90;99.90;;;;;;5055473;28;20036;-77
2023/06/22 03:40:35;;;;;;;7.20;3.65;;;14.90;99.90;;;;;;5055601;28;20027;-77
2023/06/22 03:43:01;;;;;;;10.55;5.25;;;14.90;99.90;;;;;;5037567;28;20071;-77
2023/06/22 03:45:26;;;;;;;8.73;4.00;;;15.50;99.90;;;;;;5055416;28;20025;-77
2023/06/22 03:47:53;;;;;;;6.55;3.72;;;15.00;99.90;;;;;;5055265;28;20430;-77
2023/06/22 03:50:20;;;;;;;8.80;4.18;;;15.00;99.90;;;;;;5037447;28;20025;-77
2023/06/22 03:52:46;;;;;;;9.13;4.97;;;15.00;99.90;;;;;;5037297;28;20029;-77
2023/06/22 03:55:11;;;;;;;13.30;5.70;;;15.10;99.90;;;;;;5037448;28;20119;-77
2023/06/22 03:57:37;;;;;;;10.55;5.57;;;15.20;99.90;;;;;;5055248;28;20520;-77
2023/06/22 04:00:05;;;;;;;10.25;5.40;;;15.20;99.90;;;;;;5055099;28;20036;-77
2023/06/22 04:02:31;;;;;;;11.25;6.10;;;15.30;99.90;;;;;;5055519;28;20595;-77
2023/06/22 04:04:57;;;;;;;10.27;5.43;;;15.40;99.90;;;;;;5055096;28;20060;-77
2023/06/22 04:07:22;;;;;;;11.82;5.88;;;15.30;99.90;;;;;;5054932;28;20147;-77
2023/06/22 04:09:48;;;;;;;10.80;6.07;;;15.40;99.90;;;;;;5037132;28;20028;-77
2023/06/22 04:12:13;;;;;;;13.27;5.68;;;15.50;99.90;;;;;;5036916;28;20033;-77
2023/06/22 04:14:39;;;;;;;10.90;5.65;;;15.60;99.90;;;;;;5054874;28;20025;-77
2023/06/22 04:17:05;;;;;;;15.73;7.68;;;15.60;99.90;;;;;;5054699;28;20076;-77
2023/06/22 04:19:30;;;;;;;10.05;5.85;;;15.70;99.90;;;;;;5036831;28;20074;-77
2023/06/22 04:21:56;;;;;;;10.25;6.13;;;15.70;99.90;;;;;;5054529;28;20059;-77
2023/06/22 04:24:22;;;;;;;13.77;6.70;;;15.80;99.90;;;;;;5054623;28;20120;-77
2023/06/22 04:26:47;;;;;;;13.02;6.30;;;15.90;99.90;;;;;;5054594;28;20032;-77
2023/06/22 04:29:13;;;;;;;11.77;6.47;;;16.00;99.90;;;;;;5054320;28;20104;-77
2023/06/22 04:31:39;;;;;;;11.60;6.20;;;16.10;99.90;;;;;;5054325;28;20029;-77
2023/06/22 04:34:06;;;;;;;12.45;7.15;;;16.10;99.90;;;;;;5054304;28;20132;-77
2023/06/22 04:36:37;;;;;;;12.23;6.68;;;16.30;99.90;;;;;;5036390;28;20089;-77
2023/06/22 04:39:05;;;;;;;15.48;7.43;;;16.30;99.90;;;;;;5054227;28;20112;-77
2023/06/22 04:41:41;;;;;;;15.20;6.95;;;16.50;99.90;;;;;;5054765;28;20384;-77
2023/06/22 04:44:24;;;;;;;15.40;7.53;;;16.60;99.90;;;;;;5054194;28;20411;-77
2023/06/22 04:46:59;;;;;;;15.43;6.70;;;16.70;99.90;;;;;;5036499;28;20025;-77
2023/06/22 04:49:32;;;;;;;12.25;6.63;;;16.90;99.90;;;;;;5054202;28;20100;-77
2023/06/22 04:51:58;;;;;;;12.95;6.78;;;17.10;99.90;;;;;;5053955;28;20163;-77
2023/06/22 04:54:24;;;;;;;15.05;6.97;;;17.10;99.90;;;;;;5053988;28;20048;-77
2023/06/22 04:56:56;;;;;;;15.27;8.77;;;17.20;99.90;;;;;;5036054;28;20017;-77
2023/06/22 04:59:22;;;;;;;11.10;6.53;;;17.30;99.90;;;;;;5035539;28;20017;-77
2023/06/22 05:01:51;;;;;;;18.08;8.60;;;18.20;99.90;;;;;;5053741;28;20028;-77
2023/06/22 05:04:16;;;;;;;14.30;6.75;;;17.50;99.90;;;;;;5054079;28;20039;-77
2023/06/22 05:06:42;;;;;;;12.45;7.10;;;17.60;99.90;;;;;;5054081;28;20081;-74
2023/06/22 05:09:08;;;;;;;13.15;7.13;;;17.60;99.90;;;;;;5035700;28;20031;-75
2023/06/22 05:11:33;;;;;;;13.02;6.72;;;17.70;99.90;;;;;;5053435;28;20013;-75
2023/06/22 05:13:59;;;;;;;14.95;7.63;;;17.70;99.90;;;;;;5053527;28;20072;-75
2023/06/22 05:16:25;;;;;;;18.92;9.13;;;17.80;99.90;;;;;;5053523;28;20044;-75
2023/06/22 05:18:55;;;;;;;16.95;7.75;;;17.90;99.90;;;;;;5035630;28;20112;-75
2023/06/22 05:21:27;;;;;;;16.90;8.38;;;17.90;99.90;;;;;;5053587;28;20112;-75
2023/06/22 05:23:53;;;;;;;13.77;8.10;;;18.00;99.90;;;;;;5053308;28;20033;-75
2023/06/22 05:26:20;;;;;;;15.70;7.30;;;18.00;99.90;;;;;;5053337;28;20446;-75
2023/06/22 05:28:46;;;;;;;15.25;9.57;;;18.20;99.90;;;;;;5053289;28;20033;-75
2023/06/22 05:31:16;;;;;;;12.25;7.97;;;18.30;99.90;;;;;;5035429;28;20415;-75
2023/06/22 05:33:43;;;;;;;18.92;8.65;;;18.40;99.90;;;;;;5053773;28;20104;-75
2023/06/22 05:36:09;;;;;;;17.23;8.48;;;18.60;99.90;;;;;;5035421;28;20028;-75
2023/06/22 05:38:35;;;;;;;20.33;9.73;;;18.60;99.90;;;;;;5035332;28;20476;-75
2023/06/22 05:41:01;;;;;;;19.55;10.32;;;18.80;99.90;;;;;;5053435;28;20036;-75
2023/06/22 05:43:27;;;;;;;17.42;9.60;;;18.90;99.90;;;;;;5035538;28;20032;-75
2023/06/22 05:45:52;;;;;;;15.38;8.50;;;19.00;99.90;;;;;;5053036;28;20336;-75
2023/06/22 05:48:18;;;;;;;18.15;7.40;;;20.00;99.90;;;;;;5053086;28;20021;-75
2023/06/22 05:50:43;;;;;;;17.25;9.20;;;19.10;99.90;;;;;;5052940;28;20033;-75
2023/06/22 05:53:09;;;;;;;15.82;9.98;;;19.30;99.90;;;;;;5035134;28;20060;-75
2023/06/22 05:55:35;;;;;;;21.88;10.35;;;19.40;99.90;;;;;;5053371;28;20017;-75
2023/06/22 05:58:00;;;;;;;14.40;9.00;;;19.50;99.90;;;;;;5053000;28;20029;-75
2023/06/22 06:00:26;;;;;;;14.35;8.05;;;19.40;99.90;;;;;;5053229;28;20049;-75
2023/06/22 06:02:51;;;;;;;21.35;9.23;;;19.70;99.90;;;;;;5035055;28;20057;-75
2023/06/22 06:05:18;;;;;;;21.17;9.77;;;19.70;99.90;;;;;;5053010;28;20415;-76
2023/06/22 06:07:44;;;;;;;18.80;10.23;;;19.80;99.90;;;;;;5053527;28;20032;-76
2023/06/22 06:10:10;;;;;;;21.35;10.57;;;19.90;99.90;;;;;;5052835;28;20476;-76
2023/06/22 06:12:35;;;;;;;23.38;11.20;;;19.90;99.90;;;;;;5055486;28;20028;-75
2023/06/22 06:15:02;;;;;;;14.93;9.07;;;20.20;99.90;;;;;;5038925;28;20104;-76
2023/06/22 06:17:27;;;;;;;20.77;11.88;;;20.40;99.90;;;;;;5056766;28;20021;-75
2023/06/22 06:19:53;;;;;;;17.27;10.50;;;20.50;99.90;;;;;;5038795;28;20021;-75
2023/06/22 06:22:20;;;;;;;17.90;10.63;;;20.60;99.90;;;;;;5038814;28;20021;-75
2023/06/22 06:24:47;;;;;;;18.52;9.45;;;20.70;99.90;;;;;;5056871;28;20021;-75
2023/06/22 06:27:13;;;;;;;18.13;9.32;;;20.80;99.90;;;;;;5056773;28;20028;-74
2023/06/22 06:29:38;;;;;;;14.65;8.75;;;20.90;99.90;;;;;;5056625;28;20387;-74
2023/06/22 06:32:04;;;;;;;23.27;10.30;;;21.20;99.90;;;;;;5038532;28;20033;-75
2023/06/22 06:34:30;;;;;;;17.45;9.85;;;21.20;99.90;;;;;;5056597;28;20021;-75
2023/06/22 06:36:55;;;;;;;16.00;9.60;;;21.70;99.90;;;;;;5056559;28;20021;-75
2023/06/22 06:39:21;;;;;;;19.52;11.30;;;21.70;99.90;;;;;;5057098;28;20465;-75
2023/06/22 06:41:47;;;;;;;21.15;11.00;;;21.90;99.90;;;;;;5056477;28;20515;-75
2023/06/22 06:44:12;;;;;;;14.85;8.65;;;22.10;99.90;;;;;;5056426;28;20064;-75
2023/06/22 06:46:38;;;;;;;17.15;10.07;;;22.70;99.90;;;;;;5038452;28;20025;-75
2023/06/22 06:49:03;;;;;;;13.00;7.47;;;22.40;99.90;;;;;;5056608;28;20029;-75
2023/06/22 06:51:30;;;;;;;16.98;9.25;;;22.60;99.90;;;;;;5056169;28;20040;-75
2023/06/22 06:53:55;;;;;;;17.27;9.93;;;22.80;99.90;;;;;;5054246;28;20041;-75
2023/06/22 06:56:21;;;;;;;16.27;8.13;;;22.90;99.90;;;;;;5055806;28;20031;-75
2023/06/22 06:58:46;;;;;;;17.50;9.20;;;23.00;99.90;;;;;;5055787;28;20104;-75
2023/06/22 07:01:12;;;;;;;15.07;8.48;;;23.10;99.90;;;;;;5055828;28;20489;-75
2023/06/22 07:03:38;;;;;;;12.60;8.00;;;23.20;99.90;;;;;;5037867;28;20410;-75
2023/06/22 07:06:04;;;;;;;13.07;8.45;;;23.30;99.90;;;;;;5054576;28;20028;-75
2023/06/22 07:08:29;;;;;;;12.77;7.60;;;23.40;99.90;;;;;;5017837;28;20025;-75
2023/06/22 07:10:55;;;;;;;19.33;9.18;;;23.50;99.90;;;;;;5035554;28;20021;-74
2023/06/22 07:13:21;;;;;;;11.23;7.45;;;23.40;99.90;;;;;;5035797;28;20033;-75
2023/06/22 07:15:46;;;;;;;14.65;8.80;;;23.50;99.90;;;;;;5036471;28;20025;-75
2023/06/22 07:18:12;;;;;;;12.38;8.35;;;23.40;99.90;;;;;;5017875;28;20071;-75
2023/06/22 07:20:39;;;;;;;11.65;7.53;;;23.40;99.90;;;;;;5035707;28;20052;-75
2023/06/22 07:23:05;;;;;;;17.17;7.15;;;23.50;99.90;;;;;;5035276;28;20017;-75
2023/06/22 07:25:30;;;;;;;12.75;8.18;;;23.40;99.90;;;;;;5035693;28;20034;-75
2023/06/22 07:28:04;;;;;;;13.95;8.18;;;23.40;99.90;;;;;;5035526;28;20033;-75
2023/06/22 07:30:31;;;;;;;10.93;6.63;;;23.60;99.90;;;;;;5035447;28;20387;-75
2023/06/22 07:32:58;;;;;;;11.55;6.55;;;;;;;;;;5035586;28;20064;-75
2023/06/22 07:35:24;;;;;;;13.40;8.32;;;23.80;99.90;;;;;;5035382;28;20030;-75
2023/06/22 07:37:50;;;;;;;12.73;7.85;;;24.00;99.90;;;;;;5017568;28;20538;-75
2023/06/22 07:40:15;;;;;;;15.80;8.02;;;24.10;99.90;;;;;;5035320;28;20022;-74
2023/06/22 07:42:41;;;;;;;13.32;7.10;;;24.10;99.90;;;;;;5035197;28;20092;-75
2023/06/22 07:45:08;;;;;;;11.90;7.20;;;24.40;99.90;;;;;;5017597;28;20117;-75
2023/06/22 07:47:35;;;;;;;10.70;7.20;;;24.30;99.90;;;;;;5017341;28;20029;-75
2023/06/22 07:50:01;;;;;;;11.45;6.95;;;24.30;99.90;;;;;;5017481;28;20048;-75
2023/06/22 07:52:28;;;;;;;13.80;7.20;;;24.30;99.90;;;;;;5021674;28;20025;-75
2023/06/22 07:54:53;;;;;;;15.40;8.10;;;24.40;99.90;;;;;;5054953;28;20017;-74
2023/06/22 07:57:20;;;;;;;13.00;7.60;;;24.40;99.90;;;;;;5036988;28;20054;-74
2023/06/22 07:59:45;;;;;;;15.85;7.70;;;24.40;99.90;;;;;;5036956;28;20021;-75
2023/06/22 08:02:11;;;;;;;11.23;6.93;;;24.50;99.90;;;;;;5055278;28;20104;-75
2023/06/22 08:04:37;;;;;;;15.15;6.15;;;24.50;99.90;;;;;;5054883;28;20385;-75
2023/06/22 08:07:03;;;;;;;9.13;5.68;;;24.50;99.90;;;;;;5054746;28;20092;-75
2023/06/22 08:09:31;;;;;;;8.50;4.30;;;24.60;99.90;;;;;;5054759;28;20029;-75
2023/06/22 08:11:57;;;;;;;9.30;4.57;;;25.20;99.90;;;;;;5054640;28;20480;-75
2023/06/22 08:14:26;;;;;;;8.45;5.63;;;24.90;99.90;;;;;;5054772;28;20116;-75
2023/06/22 08:16:52;;;;;;;9.15;5.22;;;25.20;99.90;;;;;;5054633;28;20021;-75
2023/06/22 08:19:18;;;;;;;10.18;6.47;;;25.20;99.90;;;;;;5054618;28;20104;-75
2023/06/22 08:21:43;;;;;;;9.45;6.22;;;25.30;99.90;;;;;;5054515;28;20065;-75
2023/06/22 08:24:09;;;;;;;9.77;5.95;;;25.50;99.90;;;;;;5054513;28;20555;-75
2023/06/22 08:26:37;;;;;;;9.35;5.43;;;25.70;99.90;;;;;;5036559;28;20021;-75
2023/06/22 08:29:03;;;;;;;12.18;6.25;;;25.80;99.90;;;;;;5054393;28;20021;-75
2023/06/22 08:31:29;;;;;;;11.65;5.72;;;25.90;99.90;;;;;;5054199;28;20047;-75
2023/06/22 08:33:54;;;;;;;7.30;5.00;;;26.30;99.90;;;;;;5053934;28;20017;-75
2023/06/22 08:36:20;;;;;;;7.30;3.30;;;26.00;99.90;;;;;;5053734;28;20506;-75
2023/06/22 08:38:51;;;;;;;7.13;3.53;;;26.10;99.90;;;;;;5036369;28;20392;-75
2023/06/22 08:41:17;;;;;;;8.88;3.80;;;26.10;99.90;;;;;;5036337;28;20068;-75
2023/06/22 08:43:44;;;;;;;6.20;3.60;;;26.20;99.90;;;;;;5054001;28;20129;-75
2023/06/22 08:46:10;;;;;;;5.53;3.38;;;26.30;99.90;;;;;;5054078;28;20389;-75
2023/06/22 08:48:36;;;;;;;6.60;3.30;;;26.40;99.90;;;;;;5053860;28;20017;-75
2023/06/22 08:51:02;;;;;;;5.38;2.63;;;26.40;99.90;;;;;;5053672;28;20035;-75
2023/06/22 08:53:27;;;;;;;3.00;1.95;;;26.40;99.90;;;;;;5035432;28;20029;-75
2023/06/22 08:55:53;;;;;;;6.25;2.92;;;26.40;99.90;;;;;;5053401;28;20170;-75
2023/06/22 08:58:20;;;;;;;4.38;2.47;;;26.40;99.90;;;;;;5052862;28;20017;-75
2023/06/22 09:00:45;;;;;;;2.95;1.52;;;26.30;99.90;;;;;;5053750;28;20024;-75
2023/06/22 09:03:11;;;;;;;3.42;2.45;;;26.20;99.90;;;;;;5052418;28;20487;-75
2023/06/22 09:05:37;;;;;;;5.18;1.33;;;26.20;99.90;;;;;;5053602;28;20510;-75
2023/06/22 09:08:03;;;;;;;4.72;1.60;;;26.20;99.90;;;;;;5053656;28;20031;-75
2023/06/22 09:10:29;;;;;;;2.40;0.90;;;26.20;99.90;;;;;;5053523;28;20029;-75
2023/06/22 09:12:54;;;;;;;3.08;0.90;;;26.20;99.90;;;;;;5035695;28;20031;-75
2023/06/22 09:15:20;;;;;;;3.25;1.67;;;26.20;99.90;;;;;;5054087;28;20031;-75
2023/06/22 09:17:46;;;;;;;3.08;1.88;;;26.20;99.90;;;;;;5054068;28;20017;-75
2023/06/22 09:20:12;;;;;;;4.22;1.80;;;26.30;99.90;;;;;;5053429;28;20060;-75
2023/06/22 09:22:38;;;;;;;3.45;1.92;;;26.50;99.90;;;;;;5053447;28;20025;-75
2023/06/22 09:25:04;;;;;;;3.05;1.85;;;26.60;99.90;;;;;;5053812;28;20422;-75
2023/06/22 09:27:30;;;;;;;5.38;2.00;;;26.60;99.90;;;;;;5053437;28;20471;-75
2023/06/22 09:29:58;;;;;;;6.55;1.55;;;26.60;99.90;;;;;;5053260;28;20035;-75
2023/06/22 09:32:24;;;;;;;2.55;1.45;;;26.60;99.90;;;;;;5053231;28;20074;-75
2023/06/22 09:34:49;;;;;;;3.03;1.30;;;26.60;99.90;;;;;;5053282;28;20021;-75
2023/06/22 09:37:15;;;;;;;3.17;2.10;;;26.70;99.90;;;;;;5053252;28;20021;-75
2023/06/22 09:39:40;;;;;;;2.25;1.58;;;26.80;99.90;;;;;;5035328;28;20454;-75
2023/06/22 09:42:06;;;;;;;6.22;1.35;;;27.00;99.60;;;;;;5053109;28;20426;-75
2023/06/22 09:44:32;;;;;;;5.22;2.80;;;26.90;99.90;;;;;;5035587;28;20024;-75
2023/06/22 09:46:57;;;;;;;5.90;2.17;;;27.10;99.90;;;;;;5053532;28;20032;-75
2023/06/22 09:49:23;;;;;;;2.90;2.35;;;27.20;99.90;;;;;;5053215;28;20029;-75
2023/06/22 09:51:50;;;;;;;4.18;2.33;;;27.30;99.90;;;;;;5053086;28;20112;-75
2023/06/22 09:54:16;;;;;;;6.00;1.87;;;27.40;99.90;;;;;;5053043;28;20033;-75
2023/06/22 09:56:41;;;;;;;4.55;1.30;;;27.60;98.70;;;;;;5053077;28;20021;-75
2023/06/22 09:59:07;;;;;;;2.08;0.93;;;27.50;98.90;;;;;;5035029;28;20023;-75
2023/06/22 10:01:33;;;;;;;0.95;0.60;;;27.50;97.70;;;;;;5053506;28;20099;-75
2023/06/22 10:03:58;;;;;;;3.40;0.63;;;27.40;98.00;;;;;;5052884;28;20032;-75
2023/06/22 10:06:24;;;;;;;1.90;0.90;;;27.40;96.40;;;;;;5053461;28;20078;-75
2023/06/22 10:08:51;;;;;;;2.30;1.40;;;27.30;95.40;;;;;;5052889;28;20060;-75
2023/06/22 10:11:17;;;;;;;5.15;1.90;;;27.20;96.40;;;;;;5034967;28;20111;-75
2023/06/22 10:13:42;;;;;;;4.40;1.52;;;27.00;97.70;;;;;;5052661;28;20104;-75
2023/06/22 10:16:08;;;;;;;2.42;1.77;;;26.80;98.20;;;;;;5047233;28;20354;-75
2023/06/22 10:18:34;;;;;;;5.03;2.33;;;26.80;98.60;;;;;;5035977;28;20481;-75
2023/06/22 10:21:00;;;;;;;2.92;1.67;;;26.70;99.90;;;;;;5032954;28;20033;-75
2023/06/22 10:23:25;;;;;;;4.63;1.98;;;26.60;99.90;;;;;;5019375;28;20037;-75
2023/06/22 10:25:51;;;;;;;5.22;1.90;;;26.50;99.90;;;;;;5032789;28;20104;-75
2023/06/22 10:28:17;;;;;;;5.40;1.83;;;26.30;99.90;;;;;;5033149;28;20029;-75
2023/06/22 10:30:43;;;;;;;3.20;1.50;;;26.20;99.90;;;;;;5036485;28;20028;-75
2023/06/22 10:33:09;;;;;;;6.80;1.88;;;26.10;99.90;;;;;;5043229;28;20525;-75
2023/06/22 10:35:37;;;;;;;4.10;1.25;;;26.00;99.90;;;;;;5029459;28;20017;-75
2023/06/22 10:38:03;;;;;;;8.23;2.20;;;25.80;99.90;;;;;;5022849;28;20021;-75
2023/06/22 10:40:29;;;;;;;2.00;1.40;;;25.80;99.90;;;;;;5024021;28;20071;-75
2023/06/22 10:42:54;;;;;;;3.00;1.65;;;25.60;99.90;;;;;;5041426;28;20021;-75
2023/06/22 10:45:20;;;;;;;3.40;1.13;;;25.50;99.90;;;;;;5033693;28;20017;-75
2023/06/22 10:47:46;;;;;;;3.28;1.17;;;25.50;99.90;;;;;;5036449;28;20036;-75
2023/06/22 10:50:11;;;;;;;2.38;1.02;;;25.40;99.90;;;;;;5014828;28;20032;-75
2023/06/22 10:52:37;;;;;;;4.22;1.13;;;25.40;99.90;;;;;;5032305;28;20034;-75
2023/06/22 10:55:03;;;;;;;2.60;1.10;;;25.40;99.90;;;;;;5032599;28;20026;-75
2023/06/22 10:57:29;;;;;;;2.40;1.08;;;25.30;99.90;;;;;;5014850;28;20029;-75
2023/06/22 10:59:55;;;;;;;4.07;1.67;;;25.30;99.90;;;;;;5019664;28;20523;-75
2023/06/22 11:02:20;;;;;;;3.45;1.08;;;25.30;99.90;;;;;;5029720;28;20021;-75
2023/06/22 11:04:47;;;;;;;3.17;1.33;;;25.30;99.90;;;;;;5036375;28;20032;-75
2023/06/22 11:07:13;;;;;;;6.25;1.33;;;25.30;99.90;;;;;;5047348;28;20009;-75
2023/06/22 11:09:39;;;;;;;2.83;0.93;;;25.30;99.90;;;;;;5023546;28;20028;-75
2023/06/22 11:12:06;;;;;;;2.00;0.95;;;25.20;99.90;;;;;;5021466;28;20025;-75
2023/06/22 11:14:33;;;;;;;2.67;1.05;;;25.20;99.90;;;;;;5036518;28;20083;-75
2023/06/22 11:16:59;;;;;;;4.85;1.33;;;25.00;99.90;;;;;;5051056;28;20036;-75
2023/06/22 11:19:30;;;;;;;3.92;1.58;;;24.90;99.90;;;;;;5044086;28;20057;-75
2023/06/22 11:21:56;;;;;;;4.35;1.77;;;24.90;99.90;;;;;;5037605;28;20018;-75
2023/06/22 11:24:22;;;;;;;1.00;0.88;;;24.80;99.90;;;;;;5048291;28;20032;-75
2023/06/22 11:26:47;;;;;;;4.15;1.50;;;24.80;99.90;;;;;;5026420;28;20111;-75
2023/06/22 11:29:13;;;;;;;2.78;1.02;;;24.70;99.90;;;;;;5039322;28;20472;-75
2023/06/22 11:31:38;;;;;;;3.35;1.50;;;24.60;99.90;;;;;;5036068;28;20037;-75
2023/06/22 11:34:04;;;;;;;3.38;0.93;;;24.60;99.90;;;;;;5019010;28;20087;-75
2023/06/22 11:36:32;;;;;;;4.13;1.42;;;24.50;99.90;;;;;;5032823;28;20047;-75
2023/06/22 11:38:58;;;;;;;5.60;1.92;;;24.50;99.90;;;;;;5035520;28;20014;-75
2023/06/22 11:41:24;;;;;;;2.63;1.23;;;24.50;99.90;;;;;;5035745;28;20025;-75
2023/06/22 11:43:49;;;;;;;2.83;1.00;;;24.50;99.90;;;;;;5035360;28;20029;-75
2023/06/22 11:46:15;;;;;;;4.10;0.90;;;24.50;99.90;;;;;;5035125;28;20033;-75
2023/06/22 11:48:40;;;;;;;3.42;1.00;;;24.50;99.90;;;;;;5035136;28;20079;-75
2023/06/22 11:51:07;;;;;;;3.70;1.40;;;24.50;99.90;;;;;;5025597;28;20025;-75
2023/06/22 11:53:34;;;;;;;5.00;1.95;;;24.70;99.90;;;;;;5054798;28;20095;-75
2023/06/22 11:56:01;;;;;;;2.67;0.95;;;24.70;99.90;;;;;;5055094;28;20029;-75
2023/06/22 11:58:27;;;;;;;4.95;1.40;;;25.10;99.90;;;;;;5055019;28;20534;-75
2023/06/22 12:00:53;;;;;;;3.55;1.90;;;24.80;99.90;;;;;;5052821;28;20029;-75
2023/06/22 12:03:21;;;;;;;6.95;3.15;;;25.20;99.90;;;;;;5027687;28;20025;-75
2023/06/22 12:05:47;;;;;;;8.95;3.15;;;24.70;99.90;;;;;;5037073;28;20484;-75
2023/06/22 12:08:13;;;;;;;5.13;2.90;;;24.60;99.90;;;;;;5043736;28;20108;-75
2023/06/22 12:10:39;;;;;;;6.13;3.08;;;24.60;99.90;;;;;;5054735;28;20028;-75
2023/06/22 12:13:04;;;;;;;8.23;3.40;;;24.60;99.90;;;;;;5062245;28;20029;-75
2023/06/22 12:15:30;;;;;;;7.85;2.60;;;24.70;99.90;;;;;;5045389;28;20237;-75
2023/06/22 12:17:55;;;;;;;5.43;3.20;;;24.70;99.90;;;;;;5032932;28;20032;-75
2023/06/22 12:20:21;;;;;;;6.28;2.58;;;24.70;99.90;;;;;;5022559;28;20044;-75
2023/06/22 12:22:47;;;;;;;4.47;2.55;;;24.70;99.90;;;;;;5054532;28;20120;-75
2023/06/22 12:25:13;;;;;;;4.50;2.38;;;24.70;99.90;;;;;;5036725;28;20113;-75
2023/06/22 12:27:38;;;;;;;7.63;3.17;;;24.70;99.90;;;;;;5050043;28;20059;-75
2023/06/22 12:30:04;;;;;;;5.70;2.90;;;24.60;99.90;;;;;;5026487;28;20029;-75
2023/06/22 12:32:30;;;;;;;5.68;3.08;;;24.60;99.90;;;;;;5015828;28;20036;-75
2023/06/22 12:34:56;;;;;;;4.30;2.65;;;24.60;99.90;;;;;;5015217;28;20396;-75
2023/06/22 12:37:23;;;;;;;7.10;2.60;;;24.50;99.90;;;;;;5034378;28;20025;-75
2023/06/22 12:39:48;;;;;;;5.38;3.28;;;24.50;99.90;;;;;;5032619;28;20021;-75
2023/06/22 12:42:15;;;;;;;4.93;2.72;;;24.40;99.90;;;;;;5034171;28;20036;-75
2023/06/22 12:44:41;;;;;;;6.20;2.92;;;24.40;99.90;;;;;;5034247;28;20097;-75
2023/06/22 12:47:08;;;;;;;6.60;3.35;;;24.30;99.90;;;;;;5034173;28;20029;-75